Terminal Aerodrome Forecast
Issued by NWS

Home | Current Version | Previous Version | Text Only | Print | Product List | Glossary On
Versions: 1 2 3 4 5 6 7 8 9 10 11 12 13 14 15 16 17
000
FTUS45 KABQ 171100
TAFTCC
TAF
KTCC 171140Z 1712/1812 22010KT P6SM FEW025 BKN120
     FM171700 20012G20KT P6SM VCSH SCT030 BKN080
      TEMPO 1717/1720 6SM -RA BR SCT020 BKN050
     FM172000 20012G22KT P6SM VCTS BKN060CB
     FM172300 20011G19KT P6SM VCSH SCT030 BKN080=

USA.gov is the U.S. government's official web portal to all federal, state and local government web resources and services.